Time;durP1;ratioP1;P1;durP2;ratioP2;P2;SDS_P1;SDS_P2;PMS_P1;PMS_P2;Temp;Humidity;BMP_temperature;BMP_pressure;BME280_temperature;BME280_humidity;BME280_pressure;Samples;Min_cycle;Max_cycle;Signal;HPM_P1;HPM_P2
2022/01/30 00:01:35;;;;;;;7.40;1.63;;;;;;;5.71;100.00;101490.88;6198904;28;20049;-75
2022/01/30 00:04:36;;;;;;;2.55;1.30;;;;;;;5.63;100.00;101466.72;6198965;28;20046;-75
2022/01/30 00:07:38;;;;;;;8.50;1.40;;;;;;;5.75;100.00;101476.03;6198769;28;20057;-76
2022/01/30 00:10:40;;;;;;;4.72;1.50;;;;;;;5.81;100.00;101484.59;6198372;28;20054;-75
2022/01/30 00:13:41;;;;;;;2.92;0.93;;;;;;;5.91;99.77;101471.34;6198927;28;20505;-75
2022/01/30 00:16:44;;;;;;;10.27;1.05;;;;;;;5.82;100.00;101478.47;6198719;28;20047;-75
2022/01/30 00:19:51;;;;;;;6.80;0.95;;;;;;;5.95;98.50;101499.09;6195551;28;20053;-76
2022/01/30 00:23:00;;;;;;;16.75;2.47;;;;;;;5.85;100.00;101501.88;6194741;28;20120;-75
2022/01/30 00:26:04;;;;;;;2.97;1.15;;;;;;;5.88;100.00;101549.66;6197805;28;20136;-73
2022/01/30 00:29:06;;;;;;;4.93;0.88;;;;;;;5.69;100.00;101557.00;6197736;28;20058;-76
2022/01/30 00:32:09;;;;;;;2.13;0.95;;;;;;;4.97;100.00;101558.34;6197391;28;20495;-75
2022/01/30 00:35:10;;;;;;;0.82;0.38;;;;;;;4.67;100.00;101557.09;6198205;28;20050;-75
2022/01/30 00:38:18;;;;;;;7.93;1.20;;;;;;;4.67;100.00;101537.13;6197689;28;20054;-75
2022/01/30 00:41:19;;;;;;;9.07;1.35;;;;;;;4.58;100.00;101558.94;6194873;28;20132;-75
2022/01/30 00:44:21;;;;;;;1.98;0.80;;;;;;;4.48;100.00;101544.38;6189965;28;20057;-76
2022/01/30 00:47:23;;;;;;;3.88;1.25;;;;;;;4.60;100.00;101543.31;6198188;28;20054;-76
2022/01/30 00:50:25;;;;;;;5.07;1.52;;;;;;;4.53;100.00;101550.34;6197786;28;20054;-77
2022/01/30 00:53:26;;;;;;;12.50;0.75;;;;;;;4.63;100.00;101552.81;6198196;28;20057;-74
2022/01/30 00:56:27;;;;;;;4.82;1.52;;;;;;;4.69;100.00;101558.81;6198098;28;20058;-76
2022/01/30 00:59:29;;;;;;;7.32;1.10;;;;;;;4.80;100.00;101556.88;6197656;28;20058;-77
2022/01/30 01:02:32;;;;;;;4.10;1.45;;;;;;;4.80;100.00;101566.44;6197858;28;20061;-76
2022/01/30 01:05:35;;;;;;;10.85;1.40;;;;;;;4.83;100.00;101555.97;6197999;28;20407;-76
2022/01/30 01:08:48;;;;;;;1.25;0.70;;;;;;;4.88;100.00;101554.16;6197635;28;20481;-75
2022/01/30 01:12:13;;;;;;;5.90;1.20;;;;;;;4.88;100.00;101556.75;6197885;28;20069;-76
2022/01/30 01:25:21;;;;;;;13.65;2.58;;;;;;;5.44;100.00;101590.50;6153496;28;20459;-76
2022/01/30 01:28:22;;;;;;;6.40;1.48;;;;;;;5.49;100.00;101558.25;6197066;28;20074;-76
2022/01/30 01:31:24;;;;;;;7.75;1.85;;;;;;;5.44;100.00;101561.81;6197558;28;20057;-77
2022/01/30 01:34:33;;;;;;;14.75;1.38;;;;;;;5.49;99.39;101549.56;6197611;28;20509;-75
2022/01/30 01:37:34;;;;;;;1.30;0.83;;;;;;;5.48;99.76;101556.53;6200546;28;20050;-75
2022/01/30 01:40:35;;;;;;;8.25;0.80;;;;;;;5.48;99.98;101551.31;6201921;28;20657;-73
2022/01/30 01:43:37;;;;;;;4.68;0.65;;;;;;;5.49;100.00;101584.31;6202082;28;20057;-76
2022/01/30 01:46:41;;;;;;;6.25;1.17;;;;;;;5.40;100.00;101542.78;6202123;28;20498;-76
2022/01/30 01:49:46;;;;;;;5.88;1.27;;;;;;;5.32;100.00;101561.19;6201944;28;20046;-76
2022/01/30 01:52:47;;;;;;;4.85;0.63;;;;;;;5.31;100.00;101562.06;6201774;28;20042;-76
2022/01/30 01:55:48;;;;;;;0.77;0.55;;;;;;;5.23;100.00;101556.13;6201812;28;20415;-75
2022/01/30 01:58:51;;;;;;;7.57;1.77;;;;;;;5.14;100.00;101550.25;6201447;28;20046;-75
2022/01/30 02:01:53;;;;;;;5.30;0.82;;;;;;;5.05;100.00;101552.13;6201593;28;20046;-75
2022/01/30 02:04:58;;;;;;;2.45;1.20;;;;;;;4.97;100.00;101564.41;6201672;28;20097;-74
2022/01/30 02:08:27;;;;;;;4.85;0.98;;;;;;;4.96;100.00;101547.06;6201571;28;20417;-75
2022/01/30 02:11:33;;;;;;;1.20;0.77;;;;;;;5.01;100.00;101555.66;6201200;28;20050;-75
2022/01/30 02:14:42;;;;;;;3.03;0.75;;;;;;;4.93;100.00;101569.69;6201781;28;20061;-76
2022/01/30 02:24:31;;;;;;;4.63;0.70;;;;;;;5.14;100.00;101547.63;6201308;28;20081;-75
2022/01/30 02:27:35;;;;;;;3.65;1.20;;;;;;;5.21;100.00;101551.84;6200850;28;20050;-75
2022/01/30 02:30:40;;;;;;;11.27;1.27;;;;;;;5.20;100.00;101564.00;6200038;28;20141;-75
2022/01/30 02:33:43;;;;;;;4.35;1.25;;;;;;;5.05;100.00;101572.09;6201003;28;20104;-75
2022/01/30 02:36:47;;;;;;;7.78;1.00;;;;;;;4.92;100.00;101586.22;6200810;28;20054;-76
2022/01/30 02:39:50;;;;;;;2.22;0.70;;;;;;;4.30;100.00;101581.91;6200676;28;20050;-77
2022/01/30 02:42:53;;;;;;;3.05;0.80;;;;;;;4.01;100.00;101586.66;6200529;28;20046;-76
2022/01/30 02:46:05;;;;;;;2.92;0.88;;;;;;;3.94;100.00;101595.41;6200961;28;20097;-76
2022/01/30 02:49:25;;;;;;;5.28;0.73;;;;;;;3.78;100.00;101599.94;6199566;28;20509;-74
2022/01/30 02:52:26;;;;;;;9.65;1.75;;;;;;;3.92;100.00;101553.84;6200457;28;20046;-75
2022/01/30 02:55:29;;;;;;;9.20;1.77;;;;;;;3.88;100.00;101546.97;6199981;28;20660;-75
2022/01/30 02:58:30;;;;;;;4.85;1.35;;;;;;;4.13;100.00;101544.88;6200696;28;20046;-75
2022/01/30 03:01:32;;;;;;;2.63;0.50;;;;;;;4.21;100.00;101549.97;6200130;28;20050;-74
2022/01/30 03:04:33;;;;;;;19.80;1.95;;;;;;;4.29;100.00;101546.38;6200380;28;20054;-75
2022/01/30 03:07:35;;;;;;;5.47;1.02;;;;;;;4.35;100.00;101544.56;6200361;28;20394;-75
2022/01/30 03:10:38;;;;;;;7.97;1.00;;;;;;;4.36;100.00;101570.59;6200049;28;20042;-75
2022/01/30 03:13:39;;;;;;;1.27;1.17;;;;;;;4.48;100.00;101546.09;6200355;28;20061;-75
2022/01/30 03:16:41;;;;;;;3.70;1.00;;;;;;;4.52;100.00;101551.25;6199985;28;20051;-75
2022/01/30 03:19:42;;;;;;;6.38;0.93;;;;;;;4.53;100.00;101554.72;6199928;28;20062;-75
2022/01/30 03:22:43;;;;;;;7.05;2.08;;;;;;;4.56;100.00;101559.88;6199604;28;20409;-75
2022/01/30 03:25:48;;;;;;;5.70;1.25;;;;;;;4.68;100.00;101567.50;6199484;28;20042;-75
2022/01/30 03:28:52;;;;;;;1.58;0.40;;;;;;;4.80;100.00;101613.31;6199312;28;20136;-76
2022/01/30 03:31:53;;;;;;;10.70;1.90;;;;;;;4.75;100.00;101600.34;6199628;28;20043;-75
2022/01/30 03:34:54;;;;;;;1.88;0.82;;;;;;;4.62;100.00;101578.00;6199499;28;20057;-76
2022/01/30 03:37:56;;;;;;;7.85;1.05;;;;;;;4.56;100.00;101584.16;6199679;28;20520;-74
2022/01/30 03:40:59;;;;;;;7.18;1.05;;;;;;;4.53;100.00;101591.16;6199298;28;20066;-75
2022/01/30 03:44:00;;;;;;;4.13;1.38;;;;;;;4.49;100.00;101610.28;6199634;28;20046;-75
2022/01/30 03:47:01;;;;;;;6.28;1.25;;;;;;;4.45;100.00;101604.28;6199290;28;20422;-75
2022/01/30 03:50:04;;;;;;;10.13;1.55;;;;;;;4.49;100.00;101621.56;6198761;28;20057;-76
2022/01/30 03:53:05;;;;;;;9.02;1.25;;;;;;;4.53;100.00;101624.97;6199312;28;20494;-75
2022/01/30 03:56:08;;;;;;;4.55;0.98;;;;;;;4.52;100.00;101629.31;6198642;28;20465;-75
2022/01/30 03:59:10;;;;;;;2.42;0.55;;;;;;;4.54;100.00;101624.97;6198898;28;20054;-75
2022/01/30 04:02:11;;;;;;;3.83;1.23;;;;;;;4.52;100.00;101611.09;6198637;28;20050;-74
2022/01/30 04:05:13;;;;;;;4.13;1.63;;;;;;;4.61;100.00;101601.44;6198733;28;20537;-75
2022/01/30 04:08:15;;;;;;;17.25;1.67;;;;;;;4.48;100.00;101599.03;6198789;28;20057;-75
2022/01/30 04:11:18;;;;;;;7.53;2.30;;;;;;;4.48;100.00;101611.19;6198315;28;20046;-75
2022/01/30 04:14:20;;;;;;;1.08;0.52;;;;;;;4.47;100.00;101610.31;6198778;28;20517;-75
2022/01/30 04:17:22;;;;;;;19.40;1.25;;;;;;;4.47;100.00;101606.88;6198717;28;20046;-75
2022/01/30 04:20:24;;;;;;;6.38;1.20;;;;;;;4.60;100.00;101638.78;6198191;28;20057;-75
2022/01/30 04:23:25;;;;;;;4.70;1.02;;;;;;;4.49;100.00;101631.97;6198483;28;20057;-74
2022/01/30 04:26:28;;;;;;;8.40;1.25;;;;;;;4.51;100.00;101644.97;6198556;28;20070;-74
2022/01/30 04:29:30;;;;;;;9.48;1.60;;;;;;;4.50;100.00;101661.47;6197583;28;20463;-74
2022/01/30 04:32:33;;;;;;;9.18;1.20;;;;;;;4.47;100.00;101672.78;6197596;28;20049;-74
2022/01/30 04:35:36;;;;;;;11.82;1.17;;;;;;;4.44;100.00;101666.75;6191768;28;20455;-73
2022/01/30 04:38:52;;;;;;;6.07;0.93;;;;;;;4.49;100.00;101654.53;6198208;28;20054;-74
2022/01/30 04:42:19;;;;;;;8.75;1.42;;;;;;;4.38;100.00;101672.03;6197743;28;20065;-74
2022/01/30 04:52:21;;;;;;;8.80;1.13;;;;;;;4.32;100.00;101678.19;6197704;28;20046;-74
2022/01/30 04:58:52;;;;;;;7.88;1.88;;;;;;;4.20;100.00;101678.34;6196722;28;20054;-74
2022/01/30 05:02:01;;;;;;;6.78;1.42;;;;;;;4.19;100.00;101687.88;6197478;28;20042;-74
2022/01/30 05:05:24;;;;;;;8.82;1.60;;;;;;;4.29;100.00;101679.09;6197729;28;20208;-75
2022/01/30 05:08:27;;;;;;;5.70;0.75;;;;;;;4.20;100.00;101676.59;6197723;28;20066;-73
2022/01/30 05:11:28;;;;;;;6.25;2.08;;;;;;;4.20;100.00;101684.41;6198697;28;20049;-74
2022/01/30 05:14:34;;;;;;;6.65;0.85;;;;;;;4.20;100.00;101673.13;6202959;28;20047;-74
2022/01/30 05:17:36;;;;;;;2.40;0.93;;;;;;;4.14;100.00;101671.47;6202801;28;20046;-73
2022/01/30 05:20:38;;;;;;;7.65;1.55;;;;;;;4.16;100.00;101653.22;6201496;28;20046;-74
2022/01/30 05:23:40;;;;;;;9.82;1.42;;;;;;;4.28;100.00;101653.94;6200907;28;20414;-75
2022/01/30 05:26:44;;;;;;;4.35;1.73;;;;;;;4.20;100.00;101660.13;6200951;28;20049;-74
2022/01/30 05:29:48;;;;;;;4.18;0.95;;;;;;;4.14;100.00;101666.28;6200435;28;20053;-74
2022/01/30 05:32:49;;;;;;;11.15;2.83;;;;;;;4.20;100.00;101660.13;6198339;28;20049;-75
2022/01/30 05:35:51;;;;;;;2.33;0.85;;;;;;;4.14;100.00;101675.81;6200833;28;20054;-74
2022/01/30 05:38:53;;;;;;;6.70;1.65;;;;;;;4.14;100.00;101652.41;6200707;28;20053;-73
2022/01/30 05:41:55;;;;;;;10.60;2.20;;;;;;;4.15;100.00;101693.13;6200447;28;20058;-74
2022/01/30 05:45:08;;;;;;;4.95;1.30;;;;;;;4.13;100.00;101672.31;6200635;28;20050;-74
2022/01/30 05:48:15;;;;;;;9.10;1.33;;;;;;;4.07;100.00;101675.88;6198134;28;20057;-74
2022/01/30 05:51:16;;;;;;;5.13;2.38;;;;;;;4.00;100.00;101700.25;6199909;28;20053;-74
2022/01/30 05:54:18;;;;;;;10.93;3.05;;;;;;;4.09;100.00;101688.88;6200210;28;20050;-74
2022/01/30 05:57:19;;;;;;;3.47;1.23;;;;;;;4.06;100.00;101705.38;6200298;28;20053;-73
2022/01/30 06:00:22;;;;;;;12.00;1.58;;;;;;;3.97;100.00;101689.00;6199778;28;20042;-74
2022/01/30 06:03:24;;;;;;;5.97;1.48;;;;;;;4.01;100.00;101688.09;6200233;28;20054;-73
2022/01/30 06:06:25;;;;;;;12.60;1.80;;;;;;;4.01;100.00;101703.69;6200098;28;20062;-74
2022/01/30 06:09:27;;;;;;;7.85;2.15;;;;;;;4.00;100.00;101741.84;6197221;28;20054;-74
2022/01/30 06:12:28;;;;;;;5.68;1.20;;;;;;;4.06;100.00;101743.53;6199751;28;20038;-74
2022/01/30 06:15:31;;;;;;;9.68;2.38;;;;;;;4.15;100.00;101740.81;6199620;28;20047;-75
2022/01/30 06:18:33;;;;;;;7.43;1.27;;;;;;;4.16;100.00;101749.47;6199757;28;20430;-74
2022/01/30 06:21:34;;;;;;;9.30;1.83;;;;;;;4.18;100.00;101752.91;6199126;28;20506;-74
2022/01/30 06:24:35;;;;;;;12.07;1.75;;;;;;;4.10;100.00;101753.03;6199719;28;20042;-74
2022/01/30 06:27:37;;;;;;;7.18;1.85;;;;;;;4.19;100.00;101767.66;6199465;28;20057;-74
2022/01/30 06:30:40;;;;;;;12.82;1.77;;;;;;;4.13;100.00;101763.38;6198681;28;20053;-74
2022/01/30 06:33:41;;;;;;;12.55;2.08;;;;;;;4.18;100.00;101771.13;6199164;28;20046;-75
2022/01/30 06:36:43;;;;;;;4.78;1.20;;;;;;;4.19;99.20;101768.53;6199154;28;20057;-75
2022/01/30 06:39:44;;;;;;;5.97;1.95;;;;;;;4.25;97.24;101776.25;6198923;28;20064;-73
2022/01/30 06:42:45;;;;;;;9.57;1.48;;;;;;;4.30;95.83;101795.28;6198844;28;20039;-74
2022/01/30 06:45:48;;;;;;;2.92;1.15;;;;;;;4.48;94.27;101811.59;6199902;28;20043;-74
2022/01/30 06:48:49;;;;;;;5.68;2.28;;;;;;;4.50;93.92;101813.31;6199868;28;20046;-73
2022/01/30 06:51:51;;;;;;;12.40;1.25;;;;;;;4.61;89.89;101807.09;6198431;28;20050;-75
2022/01/30 06:54:52;;;;;;;7.15;0.90;;;;;;;4.62;90.34;101835.72;6199531;28;20057;-74
2022/01/30 06:57:53;;;;;;;6.18;1.67;;;;;;;4.61;88.77;101817.53;6200596;28;20517;-74
2022/01/30 07:00:56;;;;;;;20.35;1.80;;;;;;;4.57;89.89;101803.66;6200114;28;20050;-73
2022/01/30 07:03:57;;;;;;;7.32;1.70;;;;;;;4.67;87.13;101809.63;6200008;28;20494;-73
2022/01/30 07:07:03;;;;;;;11.52;2.40;;;;;;;4.71;86.47;101820.00;6200368;28;20054;-73
2022/01/30 07:10:06;;;;;;;12.15;2.05;;;;;;;4.64;87.02;101809.69;6199848;28;20104;-73
2022/01/30 07:13:08;;;;;;;3.90;1.17;;;;;;;4.61;86.93;101794.94;6200140;28;20050;-74
2022/01/30 07:16:11;;;;;;;13.45;2.67;;;;;;;4.57;85.99;101780.25;6195727;28;20049;-73
2022/01/30 07:19:12;;;;;;;11.85;1.13;;;;;;;4.42;88.36;101796.03;6197363;28;20050;-73
2022/01/30 07:22:14;;;;;;;14.50;1.92;;;;;;;4.48;87.73;101794.22;6198601;28;20043;-74
2022/01/30 07:25:15;;;;;;;8.38;2.28;;;;;;;4.45;87.77;101809.00;6199348;28;20533;-74
2022/01/30 07:28:17;;;;;;;5.47;1.38;;;;;;;4.44;87.29;101812.50;6198909;28;20047;-74
2022/01/30 07:31:19;;;;;;;4.68;1.75;;;;;;;4.45;86.75;101801.19;6198970;28;20050;-74
2022/01/30 07:34:22;;;;;;;12.50;1.88;;;;;;;4.44;86.62;101808.13;6198242;28;20053;-74
2022/01/30 07:37:24;;;;;;;5.70;0.75;;;;;;;4.48;86.38;101790.75;6199403;28;20054;-74
2022/01/30 07:40:25;;;;;;;8.48;1.02;;;;;;;4.45;85.95;101794.28;6198664;28;20050;-73
2022/01/30 07:43:27;;;;;;;3.85;1.40;;;;;;;4.48;85.75;101785.56;6198343;28;20046;-73
2022/01/30 07:46:30;;;;;;;3.40;1.30;;;;;;;4.51;84.36;101814.16;6199343;28;20050;-76
2022/01/30 07:49:31;;;;;;;3.65;1.33;;;;;;;4.51;85.10;101793.34;6199342;28;20050;-73
2022/01/30 07:52:33;;;;;;;4.07;1.00;;;;;;;4.52;84.70;101788.09;6198487;28;20517;-73
2022/01/30 07:55:34;;;;;;;1.65;0.90;;;;;;;4.47;83.94;101792.50;6189147;28;20070;-73
2022/01/30 07:58:35;;;;;;;4.80;1.10;;;;;;;4.50;83.70;101815.03;6185910;28;20054;-74
2022/01/30 08:01:38;;;;;;;8.63;1.35;;;;;;;4.55;83.94;101818.47;6198704;28;20054;-74
2022/01/30 08:04:40;;;;;;;8.88;1.88;;;;;;;4.55;82.54;101836.69;6198943;28;20053;-74
2022/01/30 08:07:41;;;;;;;7.60;1.60;;;;;;;4.50;81.23;101843.69;6198911;28;20058;-74
2022/01/30 08:10:42;;;;;;;2.88;0.80;;;;;;;4.47;81.08;101878.41;6198697;28;20046;-74
2022/01/30 08:13:44;;;;;;;5.88;2.33;;;;;;;4.61;77.77;101880.84;6198515;28;20509;-74
2022/01/30 08:16:46;;;;;;;7.35;1.33;;;;;;;4.73;77.30;101898.97;6198916;28;20054;-75
2022/01/30 08:19:48;;;;;;;5.78;0.80;;;;;;;4.74;76.40;101879.84;6198287;28;20061;-74
2022/01/30 08:22:51;;;;;;;14.02;2.03;;;;;;;4.73;76.68;101887.69;6195981;28;20042;-73
2022/01/30 08:25:52;;;;;;;26.10;2.20;;;;;;;4.86;74.79;101902.31;6197491;28;20057;-75
2022/01/30 08:28:53;;;;;;;11.45;1.63;;;;;;;4.82;74.98;101937.94;6197629;28;20050;-74
2022/01/30 08:31:56;;;;;;;6.25;1.50;;;;;;;4.91;74.50;101913.53;6197974;28;20046;-75
2022/01/30 08:34:57;;;;;;;6.60;1.35;;;;;;;4.87;74.33;101924.84;6198094;28;20042;-74
2022/01/30 08:38:00;;;;;;;8.52;1.05;;;;;;;4.97;75.18;101930.81;6198376;28;20050;-75
2022/01/30 08:41:02;;;;;;;2.63;1.15;;;;;;;4.95;75.00;101941.28;6197999;28;20065;-74
2022/01/30 08:44:03;;;;;;;20.17;1.75;;;;;;;4.93;75.40;101929.97;6198049;28;20057;-74
2022/01/30 08:47:06;;;;;;;7.43;1.08;;;;;;;4.91;76.64;101920.47;6192168;28;20055;-74
2022/01/30 08:50:09;;;;;;;4.45;1.73;;;;;;;4.95;77.30;101922.16;6187595;28;20475;-72
2022/01/30 08:53:11;;;;;;;5.95;1.98;;;;;;;5.02;76.49;101919.47;6195520;28;20042;-74
2022/01/30 08:56:12;;;;;;;5.45;1.10;;;;;;;5.00;76.53;101920.38;6196995;28;20417;-74
2022/01/30 08:59:14;;;;;;;3.05;1.00;;;;;;;5.04;77.21;101940.28;6196958;28;20090;-76
2022/01/30 09:02:18;;;;;;;18.25;2.15;;;;;;;4.94;78.25;101923.88;6196449;28;20062;-75
2022/01/30 09:05:21;;;;;;;8.50;0.90;;;;;;;4.92;78.24;101933.47;6196028;28;20134;-74
2022/01/30 09:08:22;;;;;;;12.23;1.45;;;;;;;4.91;77.87;101936.97;6190649;28;20140;-75
2022/01/30 09:11:23;;;;;;;13.85;2.38;;;;;;;4.90;78.54;101948.25;6193732;28;20058;-74
2022/01/30 09:14:25;;;;;;;4.68;1.30;;;;;;;4.89;78.06;101946.53;6197625;28;20061;-74
2022/01/30 09:17:28;;;;;;;13.20;2.22;;;;;;;5.00;77.54;101951.63;6197949;28;20050;-73
2022/01/30 09:20:30;;;;;;;8.82;2.30;;;;;;;5.01;78.66;101967.25;6197028;28;20058;-75
2022/01/30 09:23:31;;;;;;;13.00;1.65;;;;;;;5.09;78.06;101974.97;6197525;28;20138;-74
2022/01/30 09:26:33;;;;;;;9.02;1.67;;;;;;;5.06;79.27;101972.41;6197639;28;20057;-75
2022/01/30 09:29:35;;;;;;;8.98;1.63;;;;;;;5.17;78.53;101986.16;6197847;28;20058;-75
2022/01/30 09:32:38;;;;;;;10.02;1.85;;;;;;;5.27;76.99;101986.94;6196956;28;20633;-75
2022/01/30 09:35:40;;;;;;;6.88;1.70;;;;;;;5.26;77.85;102008.66;6197501;28;20049;-75
2022/01/30 09:38:41;;;;;;;9.85;1.73;;;;;;;5.26;78.78;101993.88;6197637;28;20046;-75
2022/01/30 09:41:44;;;;;;;16.15;2.67;;;;;;;5.27;79.40;102007.78;6196612;28;20057;-76
2022/01/30 09:44:45;;;;;;;13.20;2.42;;;;;;;5.29;77.81;102026.88;6197700;28;20054;-75
2022/01/30 09:47:48;;;;;;;3.80;0.93;;;;;;;5.24;77.47;102015.63;6197328;28;20054;-76
2022/01/30 09:50:50;;;;;;;10.32;2.40;;;;;;;5.31;79.66;102005.13;6197150;28;20057;-75
2022/01/30 09:53:51;;;;;;;4.30;1.10;;;;;;;5.39;78.29;102007.63;6196895;28;20050;-75
2022/01/30 09:56:53;;;;;;;3.00;0.93;;;;;;;5.51;77.26;102024.91;6197784;28;20058;-75
2022/01/30 09:59:56;;;;;;;3.65;1.35;;;;;;;5.40;78.81;102011.09;6200950;28;20058;-74
2022/01/30 10:02:58;;;;;;;15.35;2.35;;;;;;;5.52;77.94;102017.03;6202141;28;20050;-74
2022/01/30 10:06:07;;;;;;;16.40;1.70;;;;;;;5.58;79.16;102021.31;6200165;28;20054;-75
2022/01/30 10:09:24;;;;;;;9.90;2.15;;;;;;;5.59;78.55;102010.03;6199768;28;20046;-74
2022/01/30 10:12:28;;;;;;;12.63;1.48;;;;;;;5.59;78.00;101999.59;6193416;28;20046;-75
2022/01/30 10:15:30;;;;;;;8.45;2.13;;;;;;;5.55;78.73;102000.50;6201429;28;20050;-74
2022/01/30 10:18:43;;;;;;;5.65;2.60;;;;;;;5.60;78.28;101991.75;6196654;28;20058;-75
2022/01/30 10:21:46;;;;;;;11.85;2.83;;;;;;;5.70;79.11;102000.31;6195629;28;20054;-75
2022/01/30 10:24:47;;;;;;;10.18;1.42;;;;;;;5.64;79.12;101997.78;6197084;28;20050;-75
2022/01/30 10:27:49;;;;;;;8.45;1.08;;;;;;;5.70;77.91;101979.44;6186182;28;20050;-75
2022/01/30 10:30:52;;;;;;;9.15;1.75;;;;;;;5.72;77.91;101998.56;6199313;28;20043;-75
2022/01/30 10:33:56;;;;;;;17.88;1.95;;;;;;;5.62;79.81;101989.09;6194912;28;20053;-74
2022/01/30 10:37:19;;;;;;;7.57;2.58;;;;;;;5.75;79.24;102021.97;6190008;28;20082;-75
2022/01/30 10:40:28;;;;;;;8.60;1.63;;;;;;;5.79;79.34;102015.84;6190532;28;20054;-76
2022/01/30 10:43:54;;;;;;;5.65;1.83;;;;;;;5.84;80.01;102047.06;6195317;28;20406;-75
2022/01/30 10:46:55;;;;;;;10.25;2.00;;;;;;;5.78;81.01;102048.03;6188732;28;20580;-76
2022/01/30 10:49:58;;;;;;;20.42;2.15;;;;;;;5.77;80.84;102024.59;6191791;28;20050;-75
2022/01/30 10:53:03;;;;;;;17.92;2.00;;;;;;;5.73;82.89;102041.16;6189903;28;20130;-75
2022/01/30 10:56:17;;;;;;;9.00;2.30;;;;;;;5.68;83.79;102051.63;6199088;28;20057;-75
2022/01/30 10:59:21;;;;;;;14.60;1.77;;;;;;;5.78;82.32;102055.00;6193785;28;20046;-76
2022/01/30 11:02:24;;;;;;;12.95;1.77;;;;;;;5.76;83.23;102068.03;6197751;28;20054;-75
2022/01/30 11:05:27;;;;;;;13.05;1.50;;;;;;;5.77;83.47;102069.78;6193631;28;20996;-76
2022/01/30 11:08:31;;;;;;;3.85;1.45;;;;;;;5.91;82.16;102092.22;6196787;28;20046;-75
2022/01/30 11:11:38;;;;;;;12.88;1.85;;;;;;;5.77;79.76;102080.22;6195613;28;20070;-75
2022/01/30 11:14:52;;;;;;;5.40;1.55;;;;;;;5.82;79.02;102107.09;6195634;28;20049;-75
2022/01/30 11:17:54;;;;;;;10.60;2.15;;;;;;;5.82;76.65;102085.38;6198244;28;20562;-75
2022/01/30 11:20:57;;;;;;;10.60;1.83;;;;;;;5.83;72.37;102087.09;6196501;28;20053;-75
2022/01/30 11:23:59;;;;;;;16.05;2.92;;;;;;;5.87;72.87;102121.84;6197558;28;20057;-76
2022/01/30 11:27:01;;;;;;;10.45;1.20;;;;;;;5.92;74.28;102088.75;6196775;28;20077;-75
2022/01/30 11:30:04;;;;;;;7.90;1.77;;;;;;;5.91;74.82;102084.41;6196142;28;20045;-76
2022/01/30 11:33:06;;;;;;;9.90;1.70;;;;;;;5.96;73.43;102098.28;6196665;28;20053;-76
2022/01/30 11:36:11;;;;;;;6.07;1.73;;;;;;;5.90;73.02;102093.94;6196534;28;20050;-76
2022/01/30 11:39:16;;;;;;;9.43;1.55;;;;;;;5.89;73.44;102097.44;6195127;28;20053;-75
2022/01/30 11:42:20;;;;;;;5.57;1.20;;;;;;;5.89;73.01;102089.63;6197219;28;20062;-75
2022/01/30 11:45:24;;;;;;;13.68;2.20;;;;;;;5.89;74.89;102087.00;6198077;28;20046;-76
2022/01/30 11:48:26;;;;;;;7.95;2.13;;;;;;;6.05;73.39;102088.59;6196421;28;20054;-76
2022/01/30 11:51:48;;;;;;;5.57;1.60;;;;;;;5.90;74.06;102073.06;6195672;28;20049;-76
2022/01/30 11:54:53;;;;;;;14.65;2.20;;;;;;;5.96;74.16;102073.06;6195261;28;20051;-75
2022/01/30 11:57:54;;;;;;;12.05;2.42;;;;;;;5.98;72.71;102067.81;6198603;28;20082;-76
2022/01/30 12:00:56;;;;;;;10.27;1.95;;;;;;;6.02;72.48;102072.09;6197570;28;20057;-76
2022/01/30 12:04:00;;;;;;;12.73;1.60;;;;;;;6.09;72.29;102071.16;6190646;28;20414;-76
2022/01/30 12:07:32;;;;;;;6.47;1.20;;;;;;;6.06;72.23;102050.31;6199080;28;20129;-75
2022/01/30 12:10:34;;;;;;;8.15;2.90;;;;;;;6.13;70.89;102071.94;6197067;28;20244;-76
2022/01/30 12:13:44;;;;;;;9.30;1.52;;;;;;;6.16;70.44;102062.34;6189430;28;20458;-75
2022/01/30 12:16:46;;;;;;;14.38;1.63;;;;;;;6.19;70.66;102072.75;6198832;28;20487;-76
2022/01/30 12:20:02;;;;;;;12.05;1.88;;;;;;;6.05;71.80;102093.81;6193770;28;20051;-76
2022/01/30 12:23:05;;;;;;;15.75;2.20;;;;;;;5.92;73.95;102091.38;6196185;28;20153;-76
2022/01/30 12:26:08;;;;;;;6.97;1.77;;;;;;;5.99;73.68;102085.19;6193960;28;20418;-76
2022/01/30 12:29:30;;;;;;;2.78;1.13;;;;;;;6.01;73.61;102091.25;6194508;28;20046;-75
2022/01/30 12:32:31;;;;;;;8.52;1.80;;;;;;;5.93;75.82;102093.94;6195416;28;20054;-76
2022/01/30 12:35:33;;;;;;;7.18;2.03;;;;;;;6.00;73.56;102099.97;6192510;28;20054;-75
2022/01/30 12:38:35;;;;;;;7.13;1.70;;;;;;;5.87;76.17;102098.38;6195746;28;20054;-76
2022/01/30 12:41:38;;;;;;;8.38;2.25;;;;;;;5.94;74.82;102097.41;6182053;28;20506;-76
2022/01/30 12:44:40;;;;;;;2.72;1.38;;;;;;;5.97;74.30;102085.22;6197190;28;20050;-76
2022/01/30 12:47:49;;;;;;;6.97;1.20;;;;;;;5.97;70.54;102090.44;6195130;28;20061;-76
2022/01/30 12:50:57;;;;;;;10.52;1.85;;;;;;;5.96;71.98;102100.91;6196310;28;20054;-75
2022/01/30 12:54:00;;;;;;;9.10;1.17;;;;;;;6.03;71.22;102097.31;6196341;28;20046;-76
2022/01/30 12:57:01;;;;;;;20.45;2.78;;;;;;;6.05;70.62;102095.56;6196318;28;20053;-76
2022/01/30 13:00:06;;;;;;;5.88;1.40;;;;;;;6.13;71.22;102098.03;6194985;28;20042;-75
2022/01/30 13:03:08;;;;;;;7.55;1.42;;;;;;;6.10;70.92;102097.22;6193506;28;20050;-76
2022/01/30 13:06:09;;;;;;;23.05;2.28;;;;;;;6.06;70.85;102079.00;6192365;28;20047;-76
2022/01/30 13:09:17;;;;;;;7.30;1.42;;;;;;;6.08;70.60;102079.84;6195584;28;20050;-76
2022/01/30 13:12:18;;;;;;;11.35;1.85;;;;;;;6.03;71.15;102076.44;6197325;28;20057;-75
2022/01/30 13:15:22;;;;;;;11.55;1.65;;;;;;;6.03;71.59;102064.25;6196783;28;20047;-75
2022/01/30 13:18:24;;;;;;;2.72;1.17;;;;;;;6.09;72.78;102071.16;6196856;28;20050;-77
2022/01/30 13:21:27;;;;;;;18.58;2.00;;;;;;;6.04;72.43;102067.72;6174726;28;20051;-76
2022/01/30 13:24:30;;;;;;;10.10;2.13;;;;;;;6.08;71.19;102072.00;6197236;28;20489;-76
2022/01/30 13:27:31;;;;;;;9.43;1.40;;;;;;;5.98;71.67;102086.06;6197630;28;20058;-76
2022/01/30 13:30:33;;;;;;;5.13;0.90;;;;;;;5.95;72.42;102091.31;6194828;28;20050;-76
2022/01/30 13:33:34;;;;;;;7.65;2.25;;;;;;;6.00;72.09;102097.38;6194806;28;20042;-76
2022/01/30 13:36:36;;;;;;;11.95;1.45;;;;;;;5.99;73.31;102106.06;6195820;28;20050;-77
2022/01/30 13:39:45;;;;;;;21.73;2.35;;;;;;;6.02;71.66;102117.31;6197950;28;20050;-76
2022/01/30 13:42:52;;;;;;;5.15;0.70;;;;;;;5.95;72.25;102122.63;6197330;28;20585;-77
2022/01/30 13:49:12;;;;;;;7.35;1.70;;;;;;;5.89;70.15;102133.97;6200378;28;20567;-76
2022/01/30 13:52:13;;;;;;;7.43;1.35;;;;;;;5.89;69.63;102136.56;6201867;28;20502;-76
2022/01/30 13:55:16;;;;;;;7.53;1.83;;;;;;;5.90;67.73;102142.66;6200617;28;20502;-76
2022/01/30 13:58:18;;;;;;;5.75;0.90;;;;;;;5.78;68.69;102125.41;6199601;28;20050;-75
2022/01/30 14:01:21;;;;;;;3.53;1.30;;;;;;;5.83;67.80;102129.69;6201740;28;20057;-76
2022/01/30 14:04:23;;;;;;;11.18;1.38;;;;;;;5.80;68.97;102126.25;6197958;28;20046;-77
2022/01/30 14:07:25;;;;;;;10.70;1.60;;;;;;;5.80;69.41;102116.69;6198057;28;20046;-75
2022/01/30 14:10:33;;;;;;;7.93;1.58;;;;;;;5.85;70.77;102112.25;6196552;28;20055;-75
2022/01/30 14:13:39;;;;;;;3.03;1.27;;;;;;;5.87;69.45;102114.88;6201469;28;20058;-76
2022/01/30 14:16:44;;;;;;;5.38;1.42;;;;;;;5.92;68.06;102117.47;6201245;28;20043;-75
2022/01/30 14:19:51;;;;;;;11.73;1.67;;;;;;;5.95;68.32;102113.06;6200992;28;20082;-76
2022/01/30 14:23:04;;;;;;;17.13;1.65;;;;;;;5.87;69.85;102103.59;6195763;28;20046;-76
2022/01/30 14:26:19;;;;;;;8.95;1.10;;;;;;;5.83;70.85;102103.59;6197131;28;20069;-76
2022/01/30 14:29:21;;;;;;;12.27;1.77;;;;;;;5.83;70.69;102100.13;6201055;28;20050;-76
2022/01/30 14:32:23;;;;;;;10.80;1.48;;;;;;;5.79;71.65;102116.69;6200551;28;20466;-75
2022/01/30 14:35:24;;;;;;;2.90;0.95;;;;;;;5.71;73.22;102108.09;6197244;28;20054;-74
2022/01/30 14:38:26;;;;;;;10.30;1.52;;;;;;;5.77;71.80;102115.88;6196979;28;20209;-76
2022/01/30 14:41:31;;;;;;;9.05;1.25;;;;;;;5.70;74.30;102127.25;6198231;28;20065;-76
2022/01/30 14:44:33;;;;;;;8.57;1.92;;;;;;;5.65;76.75;102116.00;6194495;28;20074;-76
2022/01/30 14:47:34;;;;;;;12.98;1.58;;;;;;;5.63;78.59;102129.03;6200555;28;20081;-76